Latest Weather Observations for Dwellingup

IDW60801

Issued at 3:32 pm WST Thursday 5 March 2015 (issued every 30 minutes, with the page automatically refreshed every 10 minutes)

About weather observations | Map of weather stations | Latest weather observations for WA | Other Formats
Station Details ID: 009538 Name: DWELLINGUP Lat: -32.71 Lon: 116.06 Height: 267.0 m
Data from the previous 72 hours. | See also: Recent months at Dwellingup
Date/Time
WST
Temp
°C
App
Temp
°C
Dew
Point
Rel
Hum
%
Delta-T
°C
Wind Press
QNH
hPa
Press
MSL
hPa
Rain
since 9 am
mm
Dir
 
Spd
km/h
Gust
km/h
Spd
kts
Gust
kts
05/03:30pm 30.2 26.1 6.1 22 12.9 E 17 28 9 15 1021.4 1020.5 0.0
05/03:00pm 29.4 25.5 5.5 22 12.6 ESE 15 28 8 15 1021.8 1020.9 0.0
05/02:30pm 29.5 26.4 7.4 25 12.1 ENE 13 28 7 15 1022.1 1021.2 0.0
05/02:00pm 29.4 25.7 7.9 26 11.8 E 17 30 9 16 1022.5 1021.6 0.0
05/01:30pm 28.5 25.0 8.7 29 11.0 ENE 17 32 9 17 1022.9 1022.1 0.0
05/01:00pm 27.9 24.4 8.7 30 10.6 ENE 17 32 9 17 1023.4 1022.6 0.0
05/12:30pm 27.0 23.5 8.9 32 10.0 E 17 33 9 18 1023.8 1022.9 0.0
05/12:00pm 27.0 23.7 9.4 33 9.8 E 17 33 9 18 1024.3 1023.4 0.0
05/11:30am 25.8 22.1 10.0 37 8.9 E 20 41 11 22 1024.5 1023.6 0.0
05/11:00am 24.6 21.3 10.8 42 7.8 E 19 32 10 17 1025.1 1024.2 0.0
05/10:30am 23.8 21.0 11.2 45 7.1 ENE 17 37 9 20 1025.2 1024.3 0.0
05/10:00am 22.8 19.6 11.2 48 6.5 E 19 37 10 20 1025.5 1024.6 0.0
05/09:30am 21.6 18.8 11.3 52 5.8 E 17 30 9 16 1025.5 1024.6 0.0
05/09:00am 19.9 16.7 11.1 57 4.9 E 19 33 10 18 1025.5 1024.6 0.0
05/08:30am 18.7 15.8 11.0 61 4.2 E 17 28 9 15 1025.3 1024.4 0.0
05/08:00am 17.0 14.2 11.3 69 3.1 ESE 17 30 9 16 1025.5 1024.6 0.0
05/07:30am 15.4 12.5 11.0 75 2.4 ESE 17 28 9 15 1025.6 1024.7 0.0
05/07:00am 14.6 11.2 10.6 77 2.1 SE 19 30 10 16 1025.5 1024.6 0.0
05/06:30am 14.3 10.9 10.5 78 2.0 SE 19 30 10 16 1025.1 1024.2 0.0
05/06:00am 14.4 11.0 10.4 77 2.1 SE 19 28 10 15 1024.9 1024.0 0.0
05/05:30am 14.7 11.2 10.3 75 2.3 SE 19 28 10 15 1024.8 1023.9 0.0
05/05:00am 15.0 11.6 10.4 74 2.4 SE 19 28 10 15 1024.7 1023.8 0.0
05/04:30am 15.4 12.0 10.4 72 2.7 SE 19 32 10 17 1024.6 1023.7 0.0
05/04:00am 15.7 12.1 10.5 71 2.8 SE 20 32 11 17 1024.4 1023.5 0.0
05/03:30am 16.2 12.8 10.5 69 3.1 SE 19 28 10 15 1024.3 1023.4 0.0
05/03:00am 16.7 13.7 10.5 67 3.3 SE 17 22 9 12 1024.2 1023.3 0.0
05/02:30am 17.2 14.5 10.3 64 3.7 SE 15 22 8 12 1024.2 1023.3 0.0
05/02:00am 17.8 15.1 10.4 62 4.0 SE 15 28 8 15 1024.1 1023.2 0.0
05/01:30am 18.4 14.9 10.3 59 4.4 SE 19 30 10 16 1024.0 1023.1 0.0
05/01:00am 19.0 15.8 10.0 56 4.8 SE 17 28 9 15 1023.9 1023.0 0.0
05/12:30am 19.5 16.3 10.0 54 5.1 ESE 17 28 9 15 1023.7 1022.8 0.0
05/12:00am 20.3 16.7 9.8 51 5.7 ESE 19 33 10 18 1023.8 1022.9 0.0
 
Date/Time
WST
Temp
°C
App
Temp
°C
Dew
Point
Rel
Hum
%
Delta-T
°C
Wind Press
QNH
hPa
Press
MSL
hPa
Rain
since 9 am
mm
Dir
 
Spd
km/h
Gust
km/h
Spd
kts
Gust
kts
04/11:30pm 21.2 17.9 9.4 47 6.4 ESE 17 32 9 17 1023.8 1022.9 0.0
04/11:00pm 21.9 17.5 9.1 44 6.9 ESE 22 43 12 23 1023.6 1022.7 0.0
04/10:30pm 22.7 17.4 8.4 40 7.7 ESE 26 41 14 22 1023.6 1022.7 0.0
04/10:00pm 23.2 19.4 8.9 40 7.7 ESE 19 43 10 23 1023.3 1022.5 0.0
04/09:30pm 23.3 19.4 8.6 39 7.9 SE 19 32 10 17 1023.1 1022.3 0.0
04/09:00pm 22.6 18.9 8.0 39 7.7 SE 17 28 9 15 1022.9 1022.1 0.0
04/08:30pm 23.0 19.3 7.9 38 8.0 ESE 17 24 9 13 1022.4 1021.5 0.0
04/08:00pm 23.9 20.3 8.3 37 8.4 ESE 17 28 9 15 1021.9 1021.0 0.0
04/07:30pm 25.1 21.4 8.1 34 9.2 ESE 17 28 9 15 1021.7 1020.8 0.0
04/07:00pm 26.2 22.8 7.7 31 10.0 ESE 15 19 8 10 1021.3 1020.4 0.0
04/06:30pm 27.2 23.0 7.6 29 10.6 ESE 19 30 10 16 1021.2 1020.3 0.0
04/06:00pm 28.7 25.2 7.3 26 11.6 E 15 30 8 16 1021.0 1020.1 0.0
04/05:30pm 29.3 25.0 7.2 25 12.0 E 19 33 10 18 1020.8 1019.9 0.0
04/05:00pm 29.5 26.0 7.4 25 12.0 E 15 26 8 14 1020.6 1019.7 0.0
04/04:30pm 29.8 25.7 7.7 25 12.2 ESE 19 32 10 17 1020.5 1019.6 0.0
04/04:00pm 30.2 26.5 8.0 25 12.3 E 17 30 9 16 1020.5 1019.6 0.0
04/03:30pm 30.2 27.3 8.0 25 12.3 E 13 30 7 16 1020.6 1019.7 0.0
04/03:00pm 29.7 26.6 8.7 27 11.7 SE 15 30 8 16 1020.7 1019.8 0.0
04/02:30pm 30.2 27.2 9.1 27 11.9 E 15 30 8 16 1020.9 1020.0 0.0
04/02:00pm 29.4 26.5 9.5 29 11.2 E 15 30 8 16 1021.3 1020.4 0.0
04/01:30pm 28.9 26.4 9.6 30 10.9 ENE 13 30 7 16 1021.6 1020.7 0.0
04/01:00pm 28.2 25.1 10.4 33 10.1 E 17 33 9 18 1021.9 1021.0 0.0
04/12:30pm 28.0 25.1 11.1 35 9.7 ESE 17 30 9 16 1022.3 1021.4 0.0
04/12:00pm 26.4 23.5 10.9 38 8.8 ESE 17 30 9 16 1022.6 1021.7 0.0
04/11:30am 25.3 22.0 11.5 42 7.9 SE 20 33 11 18 1023.1 1022.3 0.0
04/11:00am 24.7 21.7 12.0 45 7.3 ESE 19 32 10 17 1023.4 1022.6 0.0
04/10:30am 23.8 20.7 12.1 48 6.7 ESE 20 37 11 20 1023.8 1022.9 0.0
04/10:00am 22.4 19.8 12.1 52 5.9 ESE 17 30 9 16 1024.1 1023.2 0.0
04/09:30am 21.1 17.5 11.7 55 5.3 ESE 22 37 12 20 1024.1 1023.2 0.0
04/09:00am 19.9 16.9 11.9 60 4.5 ESE 19 33 10 18 1024.1 1023.2 0.0
04/08:30am 18.8 15.8 12.1 65 3.8 ESE 19 33 10 18 1024.1 1023.2 0.0
04/08:00am 16.6 13.4 11.9 74 2.6 ESE 20 37 11 20 1024.1 1023.2 0.0
04/07:30am 15.4 12.1 11.6 78 2.1 ESE 20 35 11 19 1024.0 1023.1 0.0
04/07:00am 14.5 11.1 11.3 81 1.7 ESE 20 30 11 16 1023.8 1022.9 0.0
04/06:30am 14.0 10.6 11.2 83 1.5 ESE 20 33 11 18 1023.4 1022.6 0.0
04/06:00am 13.9 10.5 11.1 83 1.5 ESE 20 32 11 17 1023.0 1022.2 0.0
04/05:30am 14.0 10.6 11.2 83 1.5 ESE 20 35 11 19 1022.7 1021.8 0.0
04/05:00am 14.1 10.6 10.9 81 1.7 SE 20 30 11 16 1022.6 1021.7 0.0
04/04:30am 14.5 11.3 11.1 80 1.8 SE 19 30 10 16 1022.2 1021.3 0.0
04/04:00am 14.6 11.6 10.8 78 2.0 ESE 17 28 9 15 1022.0 1021.1 0.0
04/03:30am 15.0 12.1 11.0 77 2.2 ESE 17 32 9 17 1021.8 1020.9 0.0
04/03:00am 15.3 11.8 10.9 75 2.4 ESE 20 35 11 19 1021.8 1020.9 0.0
04/02:30am 15.7 12.3 11.1 74 2.5 SE 20 33 11 18 1021.6 1020.7 0.0
04/02:00am 16.1 12.2 10.8 71 2.9 ESE 22 35 12 19 1022.0 1021.1 0.0
04/01:30am 16.6 13.1 10.9 69 3.1 ESE 20 35 11 19 1022.0 1021.1 0.0
04/01:00am 17.1 13.8 10.9 67 3.4 SE 19 32 10 17 1022.1 1021.2 0.0
04/12:30am 17.7 14.4 11.0 65 3.7 SE 19 32 10 17 1022.1 1021.2 0.0
04/12:00am 18.1 15.2 11.0 63 3.9 SE 17 33 9 18 1022.2 1021.3 0.0
 
Date/Time
WST
Temp
°C
App
Temp
°C
Dew
Point
Rel
Hum
%
Delta-T
°C
Wind Press
QNH
hPa
Press
MSL
hPa
Rain
since 9 am
mm
Dir
 
Spd
km/h
Gust
km/h
Spd
kts
Gust
kts
03/11:30pm 18.7 14.9 11.3 62 4.1 SE 22 33 12 18 1022.1 1021.2 0.0
03/11:00pm 19.4 16.6 11.2 59 4.5 SE 17 28 9 15 1022.0 1021.1 0.0
03/10:30pm 20.3 17.5 11.2 56 5.1 SE 17 32 9 17 1021.8 1020.9 0.0
03/10:00pm 21.0 17.6 11.1 53 5.5 ESE 20 33 11 18 1021.7 1020.8 0.0
03/09:30pm 21.7 17.0 10.5 49 6.2 ESE 26 46 14 25 1021.7 1020.8 0.0
03/09:00pm 22.4 19.0 10.5 47 6.6 SE 19 33 10 18 1021.3 1020.4 0.0
03/08:30pm 23.0 19.3 10.1 44 7.1 SE 20 39 11 21 1020.9 1020.0 0.0
03/08:00pm 23.6 19.9 9.6 41 7.7 SE 19 35 10 19 1020.5 1019.6 0.0
03/07:30pm 24.1 20.7 9.3 39 8.1 SE 17 28 9 15 1019.9 1019.0 0.0
03/07:00pm 24.7 21.2 8.6 36 8.7 SE 17 30 9 16 1019.3 1018.4 0.0
03/06:30pm 25.8 22.7 8.8 34 9.3 SE 15 26 8 14 1019.1 1018.2 0.0
03/06:00pm 26.7 23.5 8.6 32 9.9 SE 15 26 8 14 1018.8 1017.9 0.0
03/05:30pm 27.8 24.6 8.6 30 10.6 SE 15 30 8 16 1018.5 1017.6 0.0
03/05:00pm 28.0 24.1 8.8 30 10.6 SE 19 32 10 17 1018.7 1017.8 0.0
03/04:30pm 28.0 24.4 8.3 29 10.8 SE 17 33 9 18 1018.7 1017.8 0.0
03/04:00pm 28.4 25.3 8.7 29 10.9 ESE 15 24 8 13 1018.8 1017.9 0.0
03/03:30pm 28.5 25.7 8.7 29 11.0 ESE 13 28 7 15 1018.8 1017.9 0.0
03/03:00pm 28.9 26.4 9.6 30 10.9 SE 13 22 7 12 1019.0 1018.1 0.0
03/02:30pm 28.5 25.4 10.2 32 10.4 ESE 17 30 9 16 1019.2 1018.3 0.0
03/02:00pm 28.3 25.6 10.5 33 10.2 SE 15 26 8 14 1019.4 1018.5 0.0
03/01:30pm 26.6 24.0 10.7 37 9.1 SE 15 32 8 17 1020.0 1019.1 0.0
03/01:00pm 26.7 24.0 11.6 39 8.7 SE 17 33 9 18 1020.2 1019.3 0.0
03/12:30pm 26.5 23.5 11.8 40 8.5 ESE 19 33 10 18 1020.5 1019.6 0.0
03/12:00pm 25.1 23.3 12.0 44 7.5 E 13 33 7 18 1020.8 1019.9 0.0
03/11:30am 24.5 21.4 12.1 46 7.2 E 20 33 11 18 1021.2 1020.3 0.0
03/11:00am 23.6 21.1 12.3 49 6.5 ESE 17 30 9 16 1021.6 1020.7 0.0
03/10:30am 23.2 20.2 12.5 51 6.2 ESE 20 33 11 18 1021.7 1020.8 0.0
03/10:00am 21.2 18.2 12.1 56 5.2 ESE 19 35 10 19 1022.0 1021.1 0.0
03/09:30am 20.1 16.0 11.6 58 4.8 ESE 24 39 13 21 1022.2 1021.3 0.0
03/09:00am 19.6 15.2 11.6 60 4.5 ESE 26 46 14 25 1022.1 1021.2 0.0
03/08:30am 18.6 14.9 11.4 63 4.0 ESE 22 41 12 22 1022.1 1021.2 0.0
03/08:00am 17.5 13.4 11.5 68 3.3 ESE 24 43 13 23 1021.8 1020.9 0.0
03/07:30am 16.9 13.6 11.6 71 2.9 ESE 20 37 11 20 1021.8 1020.9 0.0
03/07:00am 16.2 12.8 11.4 73 2.6 ESE 20 33 11 18 1021.7 1020.8 0.0
03/06:30am 15.9 12.5 11.3 74 2.5 ESE 20 35 11 19 1021.5 1020.6 0.0
03/06:00am 15.6 12.1 11.0 74 2.5 ESE 20 32 11 17 1021.3 1020.4 0.0
03/05:30am 15.4 11.9 10.8 74 2.5 ESE 20 35 11 19 1021.1 1020.2 0.0
03/05:00am 15.2 10.9 10.6 74 2.5 ESE 24 39 13 21 1020.9 1020.0 0.0
03/04:30am 15.1 10.7 10.5 74 2.5 ESE 24 39 13 21 1020.9 1020.0 0.0
03/04:00am 15.0 10.2 10.4 74 2.4 ESE 26 44 14 24 1020.8 1019.9 0.0
03/03:30am 14.8 9.9 10.0 73 2.5 ESE 26 41 14 22 1020.5 1019.6 0.0
03/03:12am 14.9 9.6 9.9 72 2.6 ESE 28 48 15 26 1020.5 1019.6 0.0
03/03:00am 14.9 10.0 9.9 72 2.6 ESE 26 41 14 22 1020.5 1019.6 0.0
03/02:30am 15.1 9.8 9.9 71 2.7 ESE 28 46 15 25 1020.4 1019.5 0.0
03/02:08am 15.2 9.9 9.8 70 2.8 ESE 28 48 15 26 1020.5 1019.6 0.0
03/02:00am 15.3 11.5 9.7 69 2.9 ESE 20 33 11 18 1020.5 1019.6 0.0
03/01:30am 15.6 11.1 9.9 69 3.0 ESE 24 46 13 25 1020.4 1019.5 0.0
03/01:00am 15.7 10.4 9.8 68 3.1 ESE 28 44 15 24 1020.5 1019.6 0.0
03/12:45am 15.7 10.4 10.0 69 3.0 ESE 28 46 15 25 1020.5 1019.6 0.0
03/12:30am 15.9 11.1 10.2 69 3.0 ESE 26 52 14 28 1020.5 1019.6 0.0
03/12:00am 16.3 11.8 10.2 67 3.2 ESE 24 41 13 22 1020.5 1019.6 0.0
 
Date/Time
WST
Temp
°C
App
Temp
°C
Dew
Point
Rel
Hum
%
Delta-T
°C
Wind Press
QNH
hPa
Press
MSL
hPa
Rain
since 9 am
mm
Dir
 
Spd
km/h
Gust
km/h
Spd
kts
Gust
kts
02/11:30pm 16.8 11.2 10.0 64 3.6 ESE 30 50 16 27 1020.3 1019.4 0.0
02/11:12pm 17.0 11.7 9.9 63 3.8 ESE 28 46 15 25 1020.3 1019.4 0.0
02/11:00pm 17.1 12.2 10.0 63 3.8 ESE 26 41 14 22 1020.3 1019.4 0.0
02/10:42pm 17.3 12.1 10.2 63 3.8 ESE 28 52 15 28 1020.0 1019.1 0.0
02/10:30pm 17.6 12.8 10.2 62 4.0 SE 26 43 14 23 1020.1 1019.2 0.0
02/10:00pm 17.9 13.5 10.3 61 4.1 SE 24 46 13 25 1020.1 1019.2 0.0
02/09:41pm 18.1 12.5 10.2 60 4.3 SE 30 48 16 26 1019.9 1019.0 0.0
02/09:30pm 18.2 13.8 10.3 60 4.3 SE 24 43 13 23 1019.9 1019.0 0.0
02/09:00pm 18.6 13.8 10.4 59 4.4 SE 26 43 14 23 1019.7 1018.8 0.0
02/08:36pm 18.9 13.8 10.5 58 4.6 SE 28 48 15 26 1019.3 1018.4 0.0
02/08:30pm 18.9 14.5 10.5 58 4.6 SE 24 41 13 22 1019.2 1018.3 0.0
02/08:21pm 19.1 13.9 10.4 57 4.7 SE 28 46 15 25 1019.0 1018.1 0.0
02/08:00pm 19.6 15.2 10.3 55 5.1 SE 24 41 13 22 1018.6 1017.7 0.0
02/07:45pm 19.8 14.7 10.5 55 5.1 SE 28 46 15 25 1018.4 1017.5 0.0
02/07:30pm 19.9 15.5 10.3 54 5.2 SE 24 48 13 26 1018.2 1017.3 0.0
02/07:09pm 20.1 15.0 10.5 54 5.3 SE 28 46 15 25 1017.7 1016.8 0.0
02/07:00pm 20.5 15.8 10.6 53 5.4 SE 26 44 14 24 1017.5 1016.6 0.0
02/06:30pm 21.0 17.4 10.5 51 5.8 ESE 20 33 11 18 1017.2 1016.3 0.0
02/06:00pm 22.4 18.8 9.9 45 6.9 SE 19 35 10 19 1016.7 1015.8 0.0
02/05:30pm 23.2 19.0 9.6 42 7.5 ESE 22 37 12 20 1016.3 1015.4 0.0
02/05:00pm 24.5 20.3 9.6 39 8.2 ESE 22 43 12 23 1015.9 1014.9 0.0
02/04:30pm 25.1 20.4 9.4 37 8.7 ESE 24 43 13 23 1015.7 1014.7 0.0
02/04:08pm 24.4 19.0 9.6 39 8.2 ESE 28 46 15 25 1015.7 1014.7 0.0
02/04:00pm 25.5 20.9 9.7 37 8.8 E 24 46 13 25 1015.5 1014.6 0.0

Other Formats:

Comma delimited format used in spreadsheet applications
http://www.bom.gov.au/fwo/IDW60801/IDW60801.94620.axf

JavaScript Object Notation format (JSON) in row-major order
http://www.bom.gov.au/fwo/IDW60801/IDW60801.94620.json